Marshfield, Missouri
Current Conditions -  °F | °C
As of 3:52 PM on Saturday 20 Dec 2014 (Local Time) from KSGF Reporting Station
Overcast Overcast  
Wind Chill:   Ceiling: 1700
Heat Index:   Visibility: 10mi
Dew Point:   Wind: 7mph
Humidity: 79%   Direction: 190°S
Pressure: 30.16"   Gusts: NA
Location:  37.34°N, 92.91°W
Report Text: KSGF 202152Z 19006KT 10SM OVC017 06/02 A3016 RMK AO2 SLP220 T00560022
Loading
Personal Weather Stations






























Interactive Weather Map New forecast layout! Learn more

10-Day Weather Forecast

Advertisements
Track Severe Weather on mobile